Time;durP1;ratioP1;P1;durP2;ratioP2;P2;SDS_P1;SDS_P2;PMS_P1;PMS_P2;Temp;Humidity;BMP_temperature;BMP_pressure;BME280_temperature;BME280_humidity;BME280_pressure;Samples;Min_cycle;Max_cycle;Signal;HPM_P1;HPM_P2
2021/11/14 00:02:14;;;;;;;34.13;19.97;;;;;;;;;;5081976;28;20460;-73
2021/11/14 00:04:46;;;;;;;41.53;16.90;;;;;;;;;;5104758;28;20529;-73
2021/11/14 00:07:16;;;;;;;30.40;18.17;;;;;;;;;;5115693;28;20462;-73
2021/11/14 00:09:45;;;;;;;35.00;18.90;;;;;;;;;;5116107;28;20529;-74
2021/11/14 00:12:13;;;;;;;71.00;35.70;;;;;;;;;;5116644;28;20890;-74
2021/11/14 00:14:42;;;;;;;38.40;18.20;;;;;;;;;;5116905;28;20606;-74
2021/11/14 00:17:20;;;;;;;62.00;33.37;;;;;;;;;;5114021;28;20494;-74
2021/11/14 00:19:48;;;;;;;34.77;18.27;;;;;;;;;;5080111;28;20785;-74
2021/11/14 00:22:18;;;;;;;36.47;16.57;;;;;;;;;;5093002;28;20462;-73
2021/11/14 00:24:45;;;;;;;29.73;17.17;;;;;;;;;;5100449;28;20490;-74
2021/11/14 00:27:15;;;;;;;34.00;16.63;;;;;;;;;;5099933;28;20448;-75
2021/11/14 00:29:50;;;;;;;33.83;20.27;;;;;;;;;;5099957;28;20525;-74
2021/11/14 00:32:19;;;;;;;32.33;17.80;;;;;;;;;;5099068;28;21059;-74
2021/11/14 00:34:49;;;;;;;73.53;35.63;;;;;;;;;;5100586;28;20459;-74
2021/11/14 00:37:18;;;;;;;27.93;16.23;;;;;;;;;;5099825;28;20915;-73
2021/11/14 00:39:46;;;;;;;44.03;21.60;;;;;;;;;;5100927;28;20592;-72
2021/11/14 00:42:14;;;;;;;34.30;20.23;;;;;;;;;;5099398;28;20564;-74
2021/11/14 00:44:42;;;;;;;39.30;19.50;;;;;;;;;;5100533;28;20467;-74
2021/11/14 00:47:11;;;;;;;35.60;18.80;;;;;;;;;;5096515;28;20519;-73
2021/11/14 00:49:40;;;;;;;34.50;18.47;;;;;;;;;;5096374;28;20545;-72
2021/11/14 00:52:08;;;;;;;43.53;23.63;;;;;;;;;;5100256;28;20539;-73
2021/11/14 00:54:36;;;;;;;61.00;34.53;;;;;;;;;;5098758;28;20528;-73
2021/11/14 00:57:03;;;;;;;33.73;18.73;;;;;;;;;;5100135;28;20460;-73
2021/11/14 00:59:31;;;;;;;37.03;17.07;;;;;;;;;;5100320;28;20467;-72
2021/11/14 01:02:00;;;;;;;35.70;17.70;;;;;;;;;;5099532;28;20582;-73
2021/11/14 01:04:27;;;;;;;38.07;18.47;;;;;;;;;;5099733;28;20451;-73
2021/11/14 01:06:57;;;;;;;31.50;18.23;;;;;;;;;;5098380;28;21737;-72
2021/11/14 01:09:28;;;;;;;56.47;30.27;;;;;;;;;;5099127;28;20456;-73
2021/11/14 01:11:56;;;;;;;33.97;21.87;;;;;;;;;;5099518;28;20447;-73
2021/11/14 01:14:24;;;;;;;38.90;18.97;;;;;;;;;;5098225;28;20459;-73
2021/11/14 01:16:52;;;;;;;33.57;16.40;;;;;;;;;;5098642;28;20460;-73
2021/11/14 01:19:20;;;;;;;32.07;19.50;;;;;;;;;;5098446;28;20459;-72
2021/11/14 01:21:48;;;;;;;36.00;17.17;;;;;;;;;;5098243;28;20483;-72
2021/11/14 01:24:17;;;;;;;31.00;17.37;;;;;;;;;;5097719;28;20708;-72
2021/11/14 01:26:45;;;;;;;36.90;18.10;;;;;;;;;;5097641;28;20447;-73
2021/11/14 01:29:13;;;;;;;41.20;21.53;;;;;;;;;;5096772;28;20460;-72
2021/11/14 01:31:41;;;;;;;33.33;17.87;;;;;;;;;;5097552;28;20444;-72
2021/11/14 01:34:12;;;;;;;30.53;18.17;;;;;;;;;;5097865;28;20460;-72
2021/11/14 01:36:39;;;;;;;27.90;15.90;;;;;;;;;;5098343;28;20461;-72
2021/11/14 01:39:08;;;;;;;34.00;18.27;;;;;;;;;;5098141;28;20487;-72
2021/11/14 01:41:38;;;;;;;33.73;18.03;;;;;;;;;;5096509;28;20548;-72
2021/11/14 01:44:08;;;;;;;35.43;17.50;;;;;;;;;;5096407;28;20792;-72
2021/11/14 01:46:36;;;;;;;33.47;16.90;;;;;;;;;;5096705;28;20538;-73
2021/11/14 01:49:03;;;;;;;37.60;18.70;;;;;;;;;;5096140;28;20481;-73
2021/11/14 01:51:31;;;;;;;30.17;17.73;;;;;;;;;;5097266;28;20448;-72
2021/11/14 01:53:59;;;;;;;34.20;17.87;;;;;;;;;;5097595;28;20871;-73
2021/11/14 01:56:27;;;;;;;33.70;18.83;;;;;;;;;;5096460;28;20459;-73
2021/11/14 01:58:56;;;;;;;37.20;20.33;;;;;;;;;;5097818;28;20474;-72
2021/11/14 02:01:28;;;;;;;36.80;18.50;;;;;;;;;;5098786;28;20494;-72
2021/11/14 02:03:57;;;;;;;31.90;17.30;;;;;;;;;;5117052;28;20520;-72
2021/11/14 02:06:26;;;;;;;30.97;17.17;;;;;;;;;;5116436;28;20617;-72
2021/11/14 02:08:54;;;;;;;32.23;17.13;;;;;;;;;;5116667;28;20571;-72
2021/11/14 02:11:28;;;;;;;39.90;18.17;;;;;;;;;;5117973;28;20779;-72
2021/11/14 02:13:58;;;;;;;34.37;18.60;;;;;;;;;;5118150;28;20449;-72
2021/11/14 02:16:27;;;;;;;32.00;20.43;;;;;;;;;;5118159;28;20482;-73
2021/11/14 02:18:54;;;;;;;38.33;18.53;;;;;;;;;;5118747;28;20489;-73
2021/11/14 02:21:24;;;;;;;33.73;19.80;;;;;;;;;;5118017;28;20483;-72
2021/11/14 02:23:52;;;;;;;36.73;20.37;;;;;;;;;;5118824;28;20558;-72
2021/11/14 02:26:22;;;;;;;39.10;19.33;;;;;;;;;;5118746;28;20446;-73
2021/11/14 02:28:50;;;;;;;30.97;17.43;;;;;;;;;;5117297;28;20462;-72
2021/11/14 02:31:18;;;;;;;70.97;37.77;;;;;;;;;;5118679;28;20454;-73
2021/11/14 02:33:47;;;;;;;36.17;19.30;;;;;;;;;;5118034;28;20788;-73
2021/11/14 02:36:15;;;;;;;36.67;16.93;;;;;;;;;;5118186;27;20888;-73
2021/11/14 02:38:44;;;;;;;29.60;18.00;;;;;;;;;;5118256;28;20874;-73
2021/11/14 02:41:12;;;;;;;31.53;17.00;;;;;;;;;;5100610;28;20772;-74
2021/11/14 02:43:43;;;;;;;38.73;17.90;;;;;;;;;;5077250;28;20881;-74
2021/11/14 02:46:11;;;;;;;37.80;17.53;;;;;;;;;;5077514;28;20475;-74
2021/11/14 02:48:39;;;;;;;44.80;18.50;;;;;;;;;;5077535;28;20497;-74
2021/11/14 02:51:09;;;;;;;49.13;21.30;;;;;;;;;;5076874;28;20444;-73
2021/11/14 02:53:37;;;;;;;45.57;20.00;;;;;;;;;;5076993;28;20465;-73
2021/11/14 02:56:07;;;;;;;42.07;21.80;;;;;;;;;;5077313;28;20464;-73
2021/11/14 02:58:35;;;;;;;50.43;19.33;;;;;;;;;;5096701;28;20541;-74
2021/11/14 03:01:07;;;;;;;40.03;18.10;;;;;;;;;;5097669;28;20899;-73
2021/11/14 03:03:35;;;;;;;49.93;19.60;;;;;;;;;;5096328;28;20459;-73
2021/11/14 03:06:03;;;;;;;41.90;21.37;;;;;;;;;;5096819;28;20926;-73
2021/11/14 03:08:33;;;;;;;48.60;21.40;;;;;;;;;;5096547;28;20458;-73
2021/11/14 03:11:01;;;;;;;52.17;22.07;;;;;;;;;;5097038;28;20454;-73
2021/11/14 03:13:30;;;;;;;43.73;21.47;;;;;;;;;;5096783;28;20791;-73
2021/11/14 03:15:59;;;;;;;45.10;20.83;;;;;;;;;;5097087;28;20488;-72
2021/11/14 03:18:27;;;;;;;41.97;20.40;;;;;;;;;;5097234;28;20453;-73
2021/11/14 03:20:55;;;;;;;42.70;19.50;;;;;;;;;;5096834;28;20720;-73
2021/11/14 03:23:24;;;;;;;40.67;20.27;;;;;;;;;;5096928;28;20593;-74
2021/11/14 03:25:52;;;;;;;42.13;21.20;;;;;;;;;;5097019;28;20749;-73
2021/11/14 03:28:20;;;;;;;32.53;18.70;;;;;;;;;;5096646;28;20522;-73
2021/11/14 03:30:52;;;;;;;50.47;21.00;;;;;;;;;;5097163;28;20531;-73
2021/11/14 03:33:20;;;;;;;49.90;21.77;;;;;;;;;;5097000;28;20791;-74
2021/11/14 03:35:51;;;;;;;46.10;22.07;;;;;;;;;;5096400;28;20467;-72
2021/11/14 03:38:23;;;;;;;41.43;21.20;;;;;;;;;;5096186;28;20455;-72
2021/11/14 03:40:51;;;;;;;44.43;22.73;;;;;;;;;;5096924;28;20514;-72
2021/11/14 03:43:18;;;;;;;39.53;21.60;;;;;;;;;;5095786;28;20447;-76
2021/11/14 03:45:46;;;;;;;38.20;19.60;;;;;;;;;;5095905;28;20554;-74
2021/11/14 03:48:16;;;;;;;40.97;21.00;;;;;;;;;;5095996;28;20828;-73
2021/11/14 03:50:43;;;;;;;39.57;19.77;;;;;;;;;;5095220;28;20754;-74
2021/11/14 03:53:11;;;;;;;39.60;21.70;;;;;;;;;;5096478;28;20474;-73
2021/11/14 03:55:42;;;;;;;31.97;17.80;;;;;;;;;;5095887;28;20463;-73
2021/11/14 03:58:10;;;;;;;40.27;19.60;;;;;;;;;;5095422;28;20521;-73
2021/11/14 04:00:39;;;;;;;36.50;18.70;;;;;;;;;;5095613;28;20459;-73
2021/11/14 04:03:08;;;;;;;37.63;20.73;;;;;;;;;;5095365;28;20517;-73
2021/11/14 04:05:38;;;;;;;42.67;20.07;;;;;;;;;;5094800;28;20466;-73
2021/11/14 04:08:08;;;;;;;37.10;21.00;;;;;;;;;;5096238;28;20454;-73
2021/11/14 04:10:36;;;;;;;37.87;20.30;;;;;;;;;;5095109;28;20891;-73
2021/11/14 04:13:04;;;;;;;44.60;22.37;;;;;;;;;;5096616;28;20458;-73
2021/11/14 04:15:32;;;;;;;40.47;20.17;;;;;;;;;;5095439;28;20879;-73
2021/11/14 04:17:59;;;;;;;36.07;18.60;;;;;;;;;;5095649;28;20455;-73
2021/11/14 04:20:28;;;;;;;43.77;19.77;;;;;;;;;;5094737;28;20524;-73
2021/11/14 04:22:57;;;;;;;43.30;20.50;;;;;;;;;;5095633;28;20498;-73
2021/11/14 04:25:26;;;;;;;48.50;19.73;;;;;;;;;;5095106;28;20463;-73
2021/11/14 04:27:54;;;;;;;34.67;19.27;;;;;;;;;;5095126;28;20848;-73
2021/11/14 04:30:21;;;;;;;34.50;19.80;;;;;;;;;;5094779;28;20452;-73
2021/11/14 04:32:49;;;;;;;39.63;20.10;;;;;;;;;;5095188;28;20458;-73
2021/11/14 04:35:17;;;;;;;42.00;21.80;;;;;;;;;;5096033;28;20456;-74
2021/11/14 04:37:48;;;;;;;39.10;18.47;;;;;;;;;;5095191;28;20447;-73
2021/11/14 04:40:18;;;;;;;40.43;22.13;;;;;;;;;;5095082;28;20552;-73
2021/11/14 04:42:45;;;;;;;37.87;18.70;;;;;;;;;;5095843;28;20919;-73
2021/11/14 04:45:13;;;;;;;34.93;20.00;;;;;;;;;;5096009;28;20452;-73
2021/11/14 04:47:41;;;;;;;51.47;22.17;;;;;;;;;;5095290;28;20452;-73
2021/11/14 04:50:10;;;;;;;42.83;19.27;;;;;;;;;;5095587;28;20466;-73
2021/11/14 04:52:37;;;;;;;40.37;20.00;;;;;;;;;;5095555;28;20447;-73
2021/11/14 04:55:06;;;;;;;43.43;17.63;;;;;;;;;;5095612;28;20443;-73
2021/11/14 04:57:35;;;;;;;40.73;19.27;;;;;;;;;;5095991;28;20534;-73
2021/11/14 05:00:02;;;;;;;37.60;19.20;;;;;;;;;;5095525;28;20859;-73
2021/11/14 05:02:30;;;;;;;42.47;19.37;;;;;;;;;;5097852;28;20816;-73
2021/11/14 05:04:58;;;;;;;44.10;20.37;;;;;;;;;;5099936;28;20436;-73
2021/11/14 05:07:27;;;;;;;38.20;20.10;;;;;;;;;;5099531;28;20466;-73
2021/11/14 05:09:54;;;;;;;40.77;19.70;;;;;;;;;;5099574;28;20455;-73
2021/11/14 05:12:22;;;;;;;40.90;20.37;;;;;;;;;;5099688;28;20473;-73
2021/11/14 05:14:52;;;;;;;49.80;19.60;;;;;;;;;;5099042;28;20466;-73
2021/11/14 05:17:20;;;;;;;41.83;20.73;;;;;;;;;;5100120;28;20569;-73
2021/11/14 05:19:50;;;;;;;38.87;19.50;;;;;;;;;;5099164;28;20495;-73
2021/11/14 05:22:18;;;;;;;37.17;18.07;;;;;;;;;;5099516;28;20483;-73
2021/11/14 05:24:45;;;;;;;40.93;19.07;;;;;;;;;;5099039;28;20735;-74
2021/11/14 05:27:16;;;;;;;38.10;18.57;;;;;;;;;;5099212;28;20886;-73
2021/11/14 05:29:45;;;;;;;37.70;20.20;;;;;;;;;;5099047;28;20456;-75
2021/11/14 05:32:14;;;;;;;44.87;20.67;;;;;;;;;;5098743;28;20489;-73
2021/11/14 05:34:41;;;;;;;48.03;21.00;;;;;;;;;;5098563;28;20576;-73
2021/11/14 05:37:09;;;;;;;45.03;20.37;;;;;;;;;;5099125;28;20447;-73
2021/11/14 05:39:37;;;;;;;41.50;21.07;;;;;;;;;;5099839;28;20455;-73
2021/11/14 05:42:04;;;;;;;40.37;21.40;;;;;;;;;;5098785;28;20487;-73
2021/11/14 05:44:35;;;;;;;43.53;20.70;;;;;;;;;;5096985;28;20543;-74
2021/11/14 05:47:03;;;;;;;47.70;20.70;;;;;;;;;;5097133;28;20536;-73
2021/11/14 05:49:32;;;;;;;52.53;21.83;;;;;;;;;;5078361;28;20452;-74
2021/11/14 05:52:00;;;;;;;48.50;21.37;;;;;;;;;;5093547;28;20440;-72
2021/11/14 05:54:27;;;;;;;46.47;19.53;;;;;;;;;;5098307;28;20523;-73
2021/11/14 05:56:56;;;;;;;41.50;22.07;;;;;;;;;;5099722;28;20889;-73
2021/11/14 05:59:32;;;;;;;36.80;19.30;;;;;;;;;;5098409;28;20458;-73
2021/11/14 06:02:03;;;;;;;43.37;21.17;;;;;;;;;;5097850;28;20487;-73
2021/11/14 06:04:37;;;;;;;46.50;22.60;;;;;;;;;;5097730;28;20540;-73
2021/11/14 06:07:05;;;;;;;41.20;18.87;;;;;;;;;;5099068;28;20554;-73
2021/11/14 06:09:32;;;;;;;42.43;19.87;;;;;;;;;;5098126;28;20987;-73
2021/11/14 06:12:00;;;;;;;39.90;18.33;;;;;;;;;;5097890;28;20455;-73
2021/11/14 06:14:28;;;;;;;37.73;18.77;;;;;;;;;;5097000;28;20452;-73
2021/11/14 06:16:56;;;;;;;42.10;18.47;;;;;;;;;;5097628;28;20507;-73
2021/11/14 06:19:25;;;;;;;34.20;20.10;;;;;;;;;;5098269;28;20444;-73
2021/11/14 06:21:55;;;;;;;39.00;19.60;;;;;;;;;;5097772;28;20503;-73
2021/11/14 06:24:23;;;;;;;41.37;19.30;;;;;;;;;;5096898;28;20546;-73
2021/11/14 06:26:50;;;;;;;52.27;21.63;;;;;;;;;;5096847;28;20532;-73
2021/11/14 06:29:19;;;;;;;51.50;20.67;;;;;;;;;;5097656;28;20452;-73
2021/11/14 06:31:49;;;;;;;37.13;18.80;;;;;;;;;;5097698;28;20499;-72
2021/11/14 06:34:17;;;;;;;41.80;19.17;;;;;;;;;;5097478;28;20462;-73
2021/11/14 06:36:44;;;;;;;47.83;20.33;;;;;;;;;;5098259;28;20459;-73
2021/11/14 06:39:14;;;;;;;47.17;20.03;;;;;;;;;;5097447;28;20498;-73
2021/11/14 06:41:42;;;;;;;48.57;23.23;;;;;;;;;;5097799;28;20461;-72
2021/11/14 06:44:11;;;;;;;40.33;18.90;;;;;;;;;;5098510;28;20448;-72
2021/11/14 06:46:40;;;;;;;45.33;22.77;;;;;;;;;;5097668;28;20459;-73
2021/11/14 06:49:09;;;;;;;42.40;19.37;;;;;;;;;;5097945;28;20451;-71
2021/11/14 06:51:39;;;;;;;57.60;21.90;;;;;;;;;;5097960;28;20790;-72
2021/11/14 06:54:21;;;;;;;50.87;20.23;;;;;;;;;;5099093;28;20432;-71
2021/11/14 06:59:49;;;;;;;42.60;19.37;;;;;;;;;;5091519;28;20432;-72
2021/11/14 07:02:27;;;;;;;39.63;19.40;;;;;;;;;;5096927;28;20497;-72
2021/11/14 07:04:54;;;;;;;46.20;22.50;;;;;;;;;;5097605;28;20530;-72
2021/11/14 07:07:23;;;;;;;44.33;20.43;;;;;;;;;;5094533;28;20540;-72
2021/11/14 07:10:00;;;;;;;44.63;20.60;;;;;;;;;;5077729;28;20480;-72
2021/11/14 07:12:35;;;;;;;45.83;23.10;;;;;;;;;;5082301;28;20542;-72
2021/11/14 07:18:05;;;;;;;45.53;21.60;;;;;;;;;;5095092;28;20446;-72
2021/11/14 07:20:33;;;;;;;45.27;21.20;;;;;;;;;;5096759;28;20824;-72
2021/11/14 07:23:01;;;;;;;44.30;23.10;;;;;;;;;;5096648;28;20570;-72
2021/11/14 07:25:30;;;;;;;39.40;20.67;;;;;;;;;;5095738;28;20490;-71
2021/11/14 07:28:01;;;;;;;39.50;22.50;;;;;;;;;;5095656;28;20471;-71
2021/11/14 07:30:42;;;;;;;52.10;23.40;;;;;;;;;;5088845;28;20451;-72
2021/11/14 07:33:10;;;;;;;44.37;18.90;;;;;;;;;;5096652;28;20816;-72
2021/11/14 07:35:44;;;;;;;61.40;22.50;;;;;;;;;;5095976;28;20835;-72
2021/11/14 07:38:15;;;;;;;47.90;23.27;;;;;;;;;;5097739;28;20500;-72
2021/11/14 07:40:47;;;;;;;43.13;19.27;;;;;;;;;;5096667;28;20462;-73
2021/11/14 07:43:15;;;;;;;49.00;22.50;;;;;;;;;;5097383;28;20589;-72
2021/11/14 07:45:43;;;;;;;52.53;20.50;;;;;;;;;;5075246;28;20495;-72
2021/11/14 07:48:11;;;;;;;43.53;23.33;;;;;;;;;;5095093;28;20470;-72
2021/11/14 07:50:53;;;;;;;50.17;22.23;;;;;;;;;;5097427;28;20466;-71
2021/11/14 07:53:23;;;;;;;46.50;18.83;;;;;;;;;;5095915;28;20451;-73
2021/11/14 07:55:53;;;;;;;37.47;19.30;;;;;;;;;;5097077;28;20943;-73
2021/11/14 07:58:38;;;;;;;57.57;25.87;;;;;;;;;;5082139;28;20496;-73
2021/11/14 08:01:06;;;;;;;45.53;22.67;;;;;;;;;;5085059;28;20732;-73
2021/11/14 08:03:34;;;;;;;41.33;20.60;;;;;;;;;;5095648;28;21009;-73
2021/11/14 08:06:03;;;;;;;43.80;21.00;;;;;;;;;;5092015;28;20551;-72
2021/11/14 08:08:32;;;;;;;47.57;21.40;;;;;;;;;;5095590;28;20462;-72
2021/11/14 08:11:04;;;;;;;46.20;20.77;;;;;;;;;;5095905;28;20470;-74
2021/11/14 08:13:31;;;;;;;44.90;20.70;;;;;;;;;;5078001;28;20452;-73
2021/11/14 08:15:59;;;;;;;43.17;18.37;;;;;;;;;;5084289;28;20459;-72
2021/11/14 08:18:28;;;;;;;46.07;20.67;;;;;;;;;;5095782;28;20448;-73
2021/11/14 08:20:55;;;;;;;38.73;18.83;;;;;;;;;;5095851;28;20455;-73
2021/11/14 08:23:23;;;;;;;39.03;20.70;;;;;;;;;;5095463;28;20484;-74
2021/11/14 08:25:51;;;;;;;32.50;17.90;;;;;;;;;;5095831;28;20456;-74
2021/11/14 08:28:25;;;;;;;43.67;18.83;;;;;;;;;;5094747;28;20452;-72
2021/11/14 08:30:53;;;;;;;35.33;18.83;;;;;;;;;;5096183;28;20482;-73
2021/11/14 08:33:27;;;;;;;39.93;19.90;;;;;;;;;;5095242;28;20455;-74
2021/11/14 08:35:55;;;;;;;41.57;20.70;;;;;;;;;;5095634;28;20467;-73
2021/11/14 08:38:24;;;;;;;43.30;19.90;;;;;;;;;;5099789;28;20475;-72
2021/11/14 08:40:51;;;;;;;46.00;21.20;;;;;;;;;;5099182;28;20494;-73
2021/11/14 08:43:21;;;;;;;45.20;22.10;;;;;;;;;;5099335;28;20922;-72
2021/11/14 08:45:49;;;;;;;38.20;19.17;;;;;;;;;;5098767;28;20604;-74
2021/11/14 08:48:16;;;;;;;44.77;20.70;;;;;;;;;;5098671;28;20771;-73
2021/11/14 08:50:46;;;;;;;39.90;19.47;;;;;;;;;;5098756;28;20779;-74
2021/11/14 08:53:14;;;;;;;46.47;23.73;;;;;;;;;;5098220;28;20456;-74
2021/11/14 08:55:44;;;;;;;40.27;18.33;;;;;;;;;;5099090;28;20595;-73
2021/11/14 08:58:12;;;;;;;35.87;19.00;;;;;;;;;;5098879;28;20713;-73
2021/11/14 09:00:49;;;;;;;45.03;21.03;;;;;;;;;;5098135;28;20591;-73
2021/11/14 09:03:16;;;;;;;36.87;19.03;;;;;;;;;;5094210;28;20496;-73
2021/11/14 09:05:44;;;;;;;38.03;19.00;;;;;;;;;;5096404;28;20470;-73
2021/11/14 09:08:15;;;;;;;44.47;19.27;;;;;;;;;;5095738;28;20460;-73
2021/11/14 09:10:51;;;;;;;40.80;17.97;;;;;;;;;;5099089;28;20443;-73
2021/11/14 09:13:19;;;;;;;44.10;20.60;;;;;;;;;;5097815;28;20459;-73
2021/11/14 09:15:48;;;;;;;38.03;19.73;;;;;;;;;;5098254;28;20448;-73
2021/11/14 09:18:17;;;;;;;41.13;18.73;;;;;;;;;;5091255;28;20484;-73
2021/11/14 09:20:50;;;;;;;41.23;18.93;;;;;;;;;;5093858;28;21006;-73
2021/11/14 09:23:19;;;;;;;43.33;18.50;;;;;;;;;;5098739;28;20762;-73
2021/11/14 09:25:48;;;;;;;39.80;18.53;;;;;;;;;;5098172;28;20539;-73
2021/11/14 09:28:17;;;;;;;35.40;16.93;;;;;;;;;;5098766;28;20456;-73
2021/11/14 09:30:48;;;;;;;40.93;17.40;;;;;;;;;;5078629;28;20518;-73
2021/11/14 09:33:19;;;;;;;47.20;21.40;;;;;;;;;;5077877;28;20456;-73
2021/11/14 09:35:48;;;;;;;40.30;18.90;;;;;;;;;;5078851;28;20490;-73
2021/11/14 09:38:16;;;;;;;37.90;19.33;;;;;;;;;;5078750;28;20709;-72
2021/11/14 09:40:43;;;;;;;41.80;20.30;;;;;;;;;;5095359;28;20455;-72
2021/11/14 09:43:16;;;;;;;36.90;17.13;;;;;;;;;;5099127;28;20833;-73
2021/11/14 09:45:43;;;;;;;40.57;19.57;;;;;;;;;;5098340;28;20462;-73
2021/11/14 09:48:15;;;;;;;35.83;16.23;;;;;;;;;;5097688;28;20472;-73
2021/11/14 09:50:44;;;;;;;33.47;18.70;;;;;;;;;;5097790;28;20991;-73
2021/11/14 09:53:12;;;;;;;39.87;19.13;;;;;;;;;;5097775;28;20898;-73
2021/11/14 09:55:39;;;;;;;26.63;16.10;;;;;;;;;;5098139;28;20466;-72
2021/11/14 09:58:11;;;;;;;36.73;17.77;;;;;;;;;;5098579;28;20520;-73
2021/11/14 10:00:46;;;;;;;25.93;15.37;;;;;;;;;;5098637;28;20456;-72
2021/11/14 10:03:14;;;;;;;30.03;16.33;;;;;;;;;;5099183;28;20941;-72
2021/11/14 10:05:42;;;;;;;32.27;15.90;;;;;;;;;;5099538;28;20444;-72
2021/11/14 10:08:12;;;;;;;28.03;15.50;;;;;;;;;;5099113;28;20829;-71
2021/11/14 10:10:48;;;;;;;33.00;15.93;;;;;;;;;;5098506;28;20448;-73
2021/11/14 10:13:17;;;;;;;30.73;14.00;;;;;;;;;;5098406;28;20481;-73
2021/11/14 10:15:45;;;;;;;34.87;15.30;;;;;;;;;;5078906;28;20452;-73
2021/11/14 10:18:13;;;;;;;35.50;14.20;;;;;;;;;;5097426;28;20486;-73
2021/11/14 10:20:41;;;;;;;33.10;15.43;;;;;;;;;;5077909;28;20445;-73
2021/11/14 10:23:12;;;;;;;32.33;14.80;;;;;;;;;;5078948;28;20492;-73
2021/11/14 10:25:40;;;;;;;32.20;16.07;;;;;;;;;;5077591;28;20444;-73
2021/11/14 10:28:08;;;;;;;29.77;15.93;;;;;;;;;;5091080;28;20548;-73
2021/11/14 10:30:40;;;;;;;34.30;15.90;;;;;;;;;;5096779;28;20453;-73
2021/11/14 10:33:11;;;;;;;43.17;19.90;;;;;;;;;;5098330;28;20451;-72
2021/11/14 10:35:43;;;;;;;40.50;15.17;;;;;;;;;;5097357;28;20444;-74
2021/11/14 10:38:13;;;;;;;36.17;17.63;;;;;;;;;;5096969;28;20474;-74
2021/11/14 10:40:42;;;;;;;39.47;18.27;;;;;;;;;;5096747;28;20448;-73
2021/11/14 10:43:13;;;;;;;77.70;39.07;;;;;;;;;;5096464;28;20487;-73
2021/11/14 10:45:42;;;;;;;33.87;18.80;;;;;;;;;;5097117;28;20456;-73
2021/11/14 10:48:11;;;;;;;50.10;22.27;;;;;;;;;;5096503;28;20455;-72
2021/11/14 10:50:42;;;;;;;48.33;22.57;;;;;;;;;;5096832;28;20760;-74
2021/11/14 10:53:13;;;;;;;53.60;25.67;;;;;;;;;;5097059;28;20466;-74
2021/11/14 10:55:50;;;;;;;58.33;24.23;;;;;;;;;;5096318;28;20455;-74
2021/11/14 10:58:19;;;;;;;57.33;24.53;;;;;;;;;;5096903;28;20573;-73
2021/11/14 11:00:48;;;;;;;57.97;26.07;;;;;;;;;;5095862;28;20463;-73
2021/11/14 11:03:16;;;;;;;58.80;25.93;;;;;;;;;;5096048;28;20483;-73
2021/11/14 11:05:44;;;;;;;65.53;30.30;;;;;;;;;;5097351;28;20500;-73
2021/11/14 11:08:13;;;;;;;65.80;28.83;;;;;;;;;;5096368;28;21125;-74
2021/11/14 11:10:42;;;;;;;80.00;30.27;;;;;;;;;;5096390;28;20459;-73
2021/11/14 11:13:12;;;;;;;69.70;30.37;;;;;;;;;;5095927;28;20828;-73
2021/11/14 11:15:45;;;;;;;69.23;32.80;;;;;;;;;;5095549;28;20452;-74
2021/11/14 11:18:13;;;;;;;70.03;31.77;;;;;;;;;;5095847;28;20452;-73
2021/11/14 11:20:42;;;;;;;61.50;28.37;;;;;;;;;;5096514;28;20447;-73
2021/11/14 11:23:10;;;;;;;60.77;27.67;;;;;;;;;;5096626;28;20485;-74
2021/11/14 11:25:42;;;;;;;67.03;29.10;;;;;;;;;;5096561;28;20435;-74
2021/11/14 11:28:18;;;;;;;60.93;26.50;;;;;;;;;;5096934;28;20536;-73
2021/11/14 11:30:50;;;;;;;66.73;26.63;;;;;;;;;;5096426;28;20457;-73
2021/11/14 11:33:21;;;;;;;65.57;25.17;;;;;;;;;;5095210;28;20458;-73
2021/11/14 11:35:50;;;;;;;64.80;27.47;;;;;;;;;;5078085;28;20849;-74
2021/11/14 11:38:20;;;;;;;64.67;27.63;;;;;;;;;;5091847;28;20547;-73
2021/11/14 11:40:54;;;;;;;64.00;27.83;;;;;;;;;;5075347;28;20556;-73
2021/11/14 11:43:42;;;;;;;57.27;25.67;;;;;;;;;;5084187;28;20501;-73
2021/11/14 11:46:13;;;;;;;53.87;26.23;;;;;;;;;;5092673;28;20509;-74
2021/11/14 11:48:43;;;;;;;58.47;28.60;;;;;;;;;;5095265;28;20551;-73
2021/11/14 11:51:15;;;;;;;49.87;25.37;;;;;;;;;;5094021;28;20535;-74
2021/11/14 11:53:46;;;;;;;60.87;27.17;;;;;;;;;;5094400;28;20431;-73
2021/11/14 11:56:16;;;;;;;59.87;31.03;;;;;;;;;;5091909;28;20525;-73
2021/11/14 11:58:52;;;;;;;58.37;26.23;;;;;;;;;;5091470;28;20447;-73
2021/11/14 12:01:28;;;;;;;58.70;26.93;;;;;;;;;;5094042;28;20435;-72
2021/11/14 12:03:57;;;;;;;53.10;26.77;;;;;;;;;;5098160;28;20481;-74
2021/11/14 12:06:27;;;;;;;56.57;26.90;;;;;;;;;;5100999;28;20693;-74
2021/11/14 12:09:03;;;;;;;55.30;25.53;;;;;;;;;;5094511;28;20443;-73
2021/11/14 12:11:35;;;;;;;57.77;25.43;;;;;;;;;;5087986;28;20520;-73
2021/11/14 12:17:06;;;;;;;49.60;24.37;;;;;;;;;;5094252;28;20884;-74
2021/11/14 12:19:35;;;;;;;57.13;26.23;;;;;;;;;;5095080;28;20882;-72
2021/11/14 12:22:04;;;;;;;63.13;29.20;;;;;;;;;;5095873;28;20730;-72
2021/11/14 12:24:33;;;;;;;60.90;25.37;;;;;;;;;;5094784;28;20479;-73
2021/11/14 12:27:12;;;;;;;48.13;25.17;;;;;;;;;;5096203;28;20480;-74
2021/11/14 12:29:43;;;;;;;54.70;26.40;;;;;;;;;;5095851;28;20451;-74
2021/11/14 12:32:30;;;;;;;51.97;24.77;;;;;;;;;;5095326;28;20451;-73
2021/11/14 12:38:38;;;;;;;53.97;25.97;;;;;;;;;;5014212;28;20871;-74
2021/11/14 12:41:09;;;;;;;55.73;25.43;;;;;;;;;;5073564;28;20441;-73
2021/11/14 12:43:38;;;;;;;50.33;22.43;;;;;;;;;;5094425;28;20491;-72
2021/11/14 12:46:22;;;;;;;47.30;23.43;;;;;;;;;;5094637;28;20853;-75
2021/11/14 12:49:15;;;;;;;44.77;21.40;;;;;;;;;;5095112;28;20466;-73
2021/11/14 12:51:43;;;;;;;44.60;23.93;;;;;;;;;;5093324;28;20447;-73
2021/11/14 12:54:17;;;;;;;42.63;21.10;;;;;;;;;;5092816;28;20522;-73
2021/11/14 12:57:09;;;;;;;46.93;22.73;;;;;;;;;;5093942;28;20467;-73
2021/11/14 12:59:52;;;;;;;46.33;22.30;;;;;;;;;;5092037;28;20448;-74
2021/11/14 13:02:23;;;;;;;49.83;21.40;;;;;;;;;;5094928;28;20458;-75
2021/11/14 13:04:57;;;;;;;43.30;21.23;;;;;;;;;;5095232;28;20482;-74
2021/11/14 13:07:39;;;;;;;43.20;22.17;;;;;;;;;;5088608;28;21163;-73
2021/11/14 13:10:39;;;;;;;47.10;21.60;;;;;;;;;;5094172;28;20949;-73
2021/11/14 13:13:14;;;;;;;40.20;20.00;;;;;;;;;;5094427;28;20952;-75
2021/11/14 13:15:42;;;;;;;43.73;22.40;;;;;;;;;;5074549;28;20475;-74
2021/11/14 13:18:10;;;;;;;43.97;22.03;;;;;;;;;;5074395;28;20457;-73
2021/11/14 13:20:55;;;;;;;48.70;25.83;;;;;;;;;;5074443;28;20806;-73
2021/11/14 13:23:27;;;;;;;44.20;22.07;;;;;;;;;;5075052;28;20547;-73
2021/11/14 13:26:06;;;;;;;45.47;23.17;;;;;;;;;;5078196;28;20460;-75
2021/11/14 13:28:39;;;;;;;40.60;20.53;;;;;;;;;;5096724;28;20493;-74
2021/11/14 13:31:15;;;;;;;49.23;24.10;;;;;;;;;;5098178;28;20452;-74
2021/11/14 13:33:43;;;;;;;61.10;30.90;;;;;;;;;;5099022;28;20793;-74
2021/11/14 13:36:25;;;;;;;47.20;23.20;;;;;;;;;;5092011;28;20468;-74
2021/11/14 13:38:54;;;;;;;46.33;22.60;;;;;;;;;;5091315;28;20451;-72
2021/11/14 13:41:22;;;;;;;49.23;23.00;;;;;;;;;;5085616;28;20456;-73
2021/11/14 13:43:51;;;;;;;43.63;22.00;;;;;;;;;;5078181;28;20493;-74
2021/11/14 13:46:22;;;;;;;48.57;24.30;;;;;;;;;;5077551;28;20502;-74
2021/11/14 13:48:52;;;;;;;47.57;20.67;;;;;;;;;;5085867;28;20587;-74
2021/11/14 13:54:18;;;;;;;45.27;21.60;;;;;;;;;;5095781;28;20439;-74
2021/11/14 13:56:51;;;;;;;44.20;23.10;;;;;;;;;;5097141;28;20467;-74
2021/11/14 13:59:19;;;;;;;53.53;25.10;;;;;;;;;;5098049;28;20520;-73
2021/11/14 14:01:54;;;;;;;48.67;25.70;;;;;;;;;;5096910;28;20543;-73
2021/11/14 14:04:24;;;;;;;55.63;24.43;;;;;;;;;;5095754;28;20475;-73
2021/11/14 14:07:07;;;;;;;46.73;23.37;;;;;;;;;;5086087;28;20753;-74
2021/11/14 14:09:36;;;;;;;42.50;22.80;;;;;;;;;;5073710;28;20857;-74
2021/11/14 14:12:12;;;;;;;47.07;21.87;;;;;;;;;;5076185;28;20563;-73
2021/11/14 14:14:41;;;;;;;44.80;21.83;;;;;;;;;;5076638;28;20455;-73
2021/11/14 14:17:09;;;;;;;46.03;22.50;;;;;;;;;;5084097;28;20540;-73
2021/11/14 14:19:37;;;;;;;54.13;24.63;;;;;;;;;;5096457;28;20444;-73
2021/11/14 14:22:12;;;;;;;50.67;22.27;;;;;;;;;;5097118;28;20881;-73
2021/11/14 14:24:52;;;;;;;47.43;22.50;;;;;;;;;;5097632;28;20519;-73
2021/11/14 14:27:22;;;;;;;49.03;22.33;;;;;;;;;;5081243;28;20945;-72
2021/11/14 14:29:57;;;;;;;41.50;21.90;;;;;;;;;;5106095;28;20542;-72
2021/11/14 14:32:28;;;;;;;47.63;20.73;;;;;;;;;;5116628;28;20451;-72
2021/11/14 14:35:14;;;;;;;45.97;23.67;;;;;;;;;;5116644;28;20757;-74
2021/11/14 14:37:44;;;;;;;48.07;23.53;;;;;;;;;;5117377;28;20450;-73
2021/11/14 14:40:21;;;;;;;51.63;25.07;;;;;;;;;;5110128;28;20451;-73
2021/11/14 14:42:52;;;;;;;48.70;24.07;;;;;;;;;;5096853;28;20855;-73
2021/11/14 14:45:24;;;;;;;48.13;22.13;;;;;;;;;;5097425;28;20906;-74
2021/11/14 14:47:56;;;;;;;48.60;21.10;;;;;;;;;;5085985;28;20457;-73
2021/11/14 14:50:33;;;;;;;45.07;21.33;;;;;;;;;;5091711;28;20448;-73